createdAt,value
2018-06-01T00:00:37.106Z,43.80
2018-06-01T00:03:04.541Z,37.23
2018-06-01T00:05:32.041Z,45.97
2018-06-01T00:07:59.504Z,36.63
2018-06-01T00:10:27.741Z,36.90
2018-06-01T00:12:55.229Z,43.00
2018-06-01T00:15:23.477Z,42.13
2018-06-01T00:17:50.965Z,41.03
2018-06-01T00:20:18.435Z,38.50
2018-06-01T00:22:46.018Z,42.93
2018-06-01T00:25:13.545Z,42.93
2018-06-01T00:27:41.028Z,39.10
2018-06-01T00:30:08.493Z,40.80
2018-06-01T00:32:35.993Z,40.13
2018-06-01T00:35:03.485Z,39.70
2018-06-01T00:37:31.722Z,41.83
2018-06-01T00:39:59.237Z,40.80
2018-06-01T00:42:26.749Z,41.50
2018-06-01T00:44:54.229Z,42.07
2018-06-01T00:47:21.735Z,45.10
2018-06-01T00:49:49.211Z,50.20
2018-06-01T00:52:16.701Z,44.10
2018-06-01T00:54:52.698Z,45.83
2018-06-01T00:57:20.196Z,50.30
2018-06-01T00:59:47.668Z,45.93
2018-06-01T01:02:15.133Z,57.47
2018-06-01T01:04:42.933Z,46.43
2018-06-01T01:07:10.502Z,49.93
2018-06-01T01:09:37.977Z,54.47
2018-06-01T01:12:05.432Z,59.80
2018-06-01T01:14:32.929Z,51.63
2018-06-01T01:17:00.397Z,48.73
2018-06-01T01:19:27.858Z,51.77
2018-06-01T01:21:55.335Z,51.87
2018-06-01T01:24:22.796Z,51.30
2018-06-01T01:26:50.285Z,44.83
2018-06-01T01:29:17.812Z,54.67
2018-06-01T01:31:46.081Z,54.33
2018-06-01T01:34:14.385Z,62.90
2018-06-01T01:36:41.865Z,51.57
2018-06-01T01:39:09.352Z,72.53
2018-06-01T01:41:36.813Z,55.77
2018-06-01T01:44:04.289Z,58.33
2018-06-01T01:46:31.786Z,51.93
2018-06-01T01:48:59.254Z,50.10
2018-06-01T01:51:26.732Z,57.90
2018-06-01T01:53:54.200Z,52.33
2018-06-01T01:56:21.689Z,54.57
2018-06-01T01:58:49.913Z,46.93
2018-06-01T02:01:17.756Z,52.97
2018-06-01T02:03:45.269Z,51.83
2018-06-01T02:06:12.761Z,61.33
2018-06-01T02:08:40.492Z,56.20
2018-06-01T02:11:08.249Z,60.10
2018-06-01T02:13:35.717Z,50.60
2018-06-01T02:16:03.209Z,59.43
2018-06-01T02:18:30.697Z,59.63
2018-06-01T02:20:58.164Z,52.67
2018-06-01T02:23:25.649Z,57.63
2018-06-01T02:25:53.142Z,56.67
2018-06-01T02:28:20.719Z,60.30
2018-06-01T02:30:48.208Z,52.30
2018-06-01T02:33:15.679Z,52.60
2018-06-01T02:35:43.177Z,48.60
2018-06-01T02:38:10.671Z,64.30
2018-06-01T02:40:38.174Z,55.60
2018-06-01T02:43:06.404Z,58.17
2018-06-01T02:45:33.897Z,58.07
2018-06-01T02:48:01.356Z,60.73
2018-06-01T02:50:29.152Z,65.43
2018-06-01T02:52:56.669Z,61.80
2018-06-01T02:55:24.142Z,54.67
2018-06-01T02:57:51.623Z,53.90
2018-06-01T03:00:19.876Z,57.63
2018-06-01T03:02:47.367Z,56.10
2018-06-01T03:05:14.849Z,60.57
2018-06-01T03:07:42.365Z,61.57
2018-06-01T03:10:10.627Z,58.43
2018-06-01T03:12:38.116Z,58.87
2018-06-01T03:15:05.630Z,60.23
2018-06-01T03:17:33.117Z,59.03
2018-06-01T03:20:01.425Z,50.30
2018-06-01T03:22:28.884Z,53.50
2018-06-01T03:24:56.369Z,49.60
2018-06-01T03:27:23.827Z,63.80
2018-06-01T03:29:51.308Z,66.43
2018-06-01T03:32:18.823Z,54.60
2018-06-01T03:34:46.295Z,53.20
2018-06-01T03:37:13.765Z,55.30
2018-06-01T03:39:41.272Z,60.20
2018-06-01T03:42:09.589Z,61.90
2018-06-01T03:44:37.065Z,64.17
2018-06-01T03:47:04.552Z,62.83
2018-06-01T03:49:32.141Z,73.27
2018-06-01T03:51:59.635Z,61.30
2018-06-01T03:54:27.100Z,56.77
2018-06-01T03:56:54.589Z,52.20
2018-06-01T03:59:22.049Z,62.23
2018-06-01T04:01:49.530Z,73.93
2018-06-01T04:04:17.008Z,64.60
2018-06-01T04:06:44.479Z,66.37
2018-06-01T04:09:11.964Z,55.40
2018-06-01T04:11:39.436Z,66.07
2018-06-01T04:14:06.932Z,59.00
2018-06-01T04:16:34.393Z,63.70
2018-06-01T04:19:01.885Z,58.60
2018-06-01T04:21:29.380Z,67.77
2018-06-01T04:23:57.612Z,56.90
2018-06-01T04:26:25.092Z,58.37
2018-06-01T04:28:52.582Z,57.40
2018-06-01T04:31:20.057Z,59.10
2018-06-01T04:33:47.513Z,57.67
2018-06-01T04:36:15.001Z,60.20
2018-06-01T04:38:42.477Z,63.17
2018-06-01T04:41:09.932Z,57.57
2018-06-01T04:43:37.450Z,57.13
2018-06-01T04:46:04.906Z,53.30
2018-06-01T04:48:32.379Z,53.80
2018-06-01T04:50:59.867Z,49.00
2018-06-01T04:53:27.361Z,47.20
2018-06-01T04:55:54.820Z,48.30
2018-06-01T04:58:23.050Z,46.70
2018-06-01T05:00:50.528Z,48.83
2018-06-01T05:03:18.002Z,48.93
2018-06-01T05:05:45.479Z,49.20
2018-06-01T05:08:12.936Z,48.80
2018-06-01T05:10:41.161Z,55.43
2018-06-01T05:13:08.627Z,49.60
2018-06-01T05:15:36.097Z,50.80
2018-06-01T05:18:03.597Z,56.37
2018-06-01T05:20:31.091Z,52.40
2018-06-01T05:22:58.682Z,49.50
2018-06-01T05:25:26.181Z,46.50
2018-06-01T05:27:53.664Z,58.03
2018-06-01T05:30:21.153Z,53.83
2018-06-01T05:32:48.620Z,64.80
2018-06-01T05:35:16.090Z,52.87
2018-06-01T05:37:43.588Z,59.20
2018-06-01T05:40:11.052Z,52.60
2018-06-01T05:42:38.609Z,57.37
2018-06-01T05:45:06.105Z,60.50
2018-06-01T05:47:33.561Z,51.60
2018-06-01T05:50:01.014Z,52.87
2018-06-01T05:52:29.297Z,47.00
2018-06-01T05:54:56.908Z,54.43
2018-06-01T05:57:24.368Z,49.67
2018-06-01T05:59:52.135Z,55.90
2018-06-01T06:02:19.637Z,54.03
2018-06-01T06:04:47.120Z,49.07
2018-06-01T06:07:14.770Z,47.40
2018-06-01T06:09:42.172Z,45.87
2018-06-01T06:12:09.644Z,50.30
2018-06-01T06:14:37.138Z,45.33
2018-06-01T06:17:04.604Z,48.97
2018-06-01T06:19:32.101Z,48.67
2018-06-01T06:21:59.585Z,52.97
2018-06-01T06:24:27.089Z,55.43
2018-06-01T06:26:54.596Z,69.20
2018-06-01T06:29:22.063Z,56.97
2018-06-01T06:31:49.551Z,51.10
2018-06-01T06:34:17.021Z,62.50
2018-06-01T06:36:44.503Z,59.93
2018-06-01T06:39:12.798Z,54.77
2018-06-01T06:41:40.274Z,60.13
2018-06-01T06:44:07.770Z,58.90
2018-06-01T06:46:35.241Z,66.87
2018-06-01T06:49:02.712Z,55.53
2018-06-01T06:51:30.198Z,56.97
2018-06-01T06:53:57.863Z,77.93
2018-06-01T06:56:25.347Z,60.17
2018-06-01T06:58:52.813Z,55.07
2018-06-01T07:01:20.292Z,58.63
2018-06-01T07:03:47.757Z,53.90
2018-06-01T07:06:16.047Z,51.67
2018-06-01T07:08:44.276Z,52.50
2018-06-01T07:11:11.747Z,57.70
2018-06-01T07:13:39.627Z,52.80
2018-06-01T07:16:07.286Z,62.50
2018-06-01T07:18:35.572Z,58.93
2018-06-01T07:21:03.032Z,62.77
2018-06-01T07:23:30.503Z,58.73
2018-06-01T07:25:58.756Z,64.90
2018-06-01T07:28:26.752Z,63.70
2018-06-01T07:30:54.716Z,59.23
2018-06-01T07:33:22.326Z,60.83
2018-06-01T07:35:51.200Z,85.03
2018-06-01T07:38:18.917Z,65.63
2018-06-01T07:40:47.195Z,62.87
2018-06-01T07:43:15.549Z,67.07
2018-06-01T07:45:43.100Z,66.07
2018-06-01T07:48:10.660Z,67.10
2018-06-01T07:50:38.274Z,75.93
2018-06-01T07:53:06.793Z,69.30
2018-06-01T07:55:34.336Z,78.90
2018-06-01T07:58:01.819Z,74.90
2018-06-01T08:00:30.620Z,83.83
2018-06-01T08:02:58.153Z,68.30
2018-06-01T08:05:25.698Z,80.97
2018-06-01T08:07:53.572Z,72.83
2018-06-01T08:10:21.114Z,77.43
2018-06-01T08:12:49.018Z,73.40
2018-06-01T08:15:17.343Z,71.90
2018-06-01T08:17:45.640Z,71.00
2018-06-01T08:20:13.225Z,67.63
2018-06-01T08:22:41.057Z,65.90
2018-06-01T08:25:08.632Z,73.13
2018-06-01T08:27:36.119Z,66.00
2018-06-01T08:30:03.949Z,70.60
2018-06-01T08:32:31.474Z,71.23
2018-06-01T08:34:58.955Z,65.73
2018-06-01T08:37:26.417Z,65.70
2018-06-01T08:39:53.882Z,65.57
2018-06-01T08:42:22.141Z,61.70
2018-06-01T08:44:49.604Z,62.37
2018-06-01T08:47:17.080Z,62.53
2018-06-01T08:49:45.345Z,72.23
2018-06-01T08:52:12.881Z,70.53
2018-06-01T08:54:40.337Z,71.33
2018-06-01T08:57:07.800Z,70.47
2018-06-01T08:59:35.291Z,70.13
2018-06-01T09:02:02.768Z,77.80
2018-06-01T09:04:30.289Z,69.30
2018-06-01T09:06:57.745Z,69.50
2018-06-01T09:09:25.223Z,76.20
2018-06-01T09:11:53.497Z,75.20
2018-06-01T09:14:20.943Z,69.60
2018-06-01T09:16:48.464Z,69.50
2018-06-01T09:19:15.866Z,65.80
2018-06-01T09:21:43.354Z,69.67
2018-06-01T09:24:10.807Z,64.63
2018-06-01T09:26:39.066Z,65.33
2018-06-01T09:29:07.348Z,68.17
2018-06-01T09:31:35.603Z,69.17
2018-06-01T09:34:03.432Z,73.77
2018-06-01T09:36:30.888Z,80.60
2018-06-01T09:38:58.373Z,71.60
2018-06-01T09:41:25.912Z,85.93
2018-06-01T09:43:53.700Z,71.60
2018-06-01T09:46:22.134Z,75.10
2018-06-01T09:48:49.855Z,71.13
2018-06-01T09:51:18.148Z,69.40
2018-06-01T09:53:45.620Z,73.30
2018-06-01T09:56:13.847Z,66.23
2018-06-01T09:58:41.329Z,80.77
2018-06-01T10:01:09.711Z,73.33
2018-06-01T10:03:37.191Z,67.53
2018-06-01T10:06:04.692Z,76.87
2018-06-01T10:08:32.152Z,75.87
2018-06-01T10:10:59.627Z,71.57
2018-06-01T10:13:27.125Z,74.67
2018-06-01T10:15:55.593Z,74.10
2018-06-01T10:18:24.066Z,69.70
2018-06-01T10:20:51.684Z,70.57
2018-06-01T10:23:19.174Z,84.70
2018-06-01T10:25:46.764Z,82.13
2018-06-01T10:28:15.001Z,70.50
2018-06-01T10:30:42.492Z,75.73
2018-06-01T10:33:10.072Z,83.00
2018-06-01T10:35:37.782Z,86.43
2018-06-01T10:38:05.295Z,84.03
2018-06-01T10:40:33.543Z,76.73
2018-06-01T10:43:01.010Z,75.47
2018-06-01T10:45:28.491Z,73.20
2018-06-01T10:47:56.719Z,72.03
2018-06-01T10:50:24.248Z,74.43
2018-06-01T10:52:51.941Z,64.83
2018-06-01T10:55:19.456Z,74.77
2018-06-01T10:57:47.712Z,70.13
2018-06-01T11:00:15.176Z,73.67
2018-06-01T11:02:43.432Z,75.20
2018-06-01T11:05:10.973Z,74.77
2018-06-01T11:07:38.451Z,69.63
2018-06-01T11:10:05.921Z,74.53
2018-06-01T11:12:33.605Z,72.80
2018-06-01T11:15:01.101Z,73.80
2018-06-01T11:17:28.594Z,75.73
2018-06-01T11:19:56.071Z,82.70
2018-06-01T11:22:23.563Z,78.00
2018-06-01T11:24:51.249Z,72.90
2018-06-01T11:27:18.708Z,74.97
2018-06-01T11:29:46.180Z,89.37
2018-06-01T11:32:14.461Z,80.97
2018-06-01T11:34:42.026Z,79.10
2018-06-01T11:37:09.567Z,78.07
2018-06-01T11:39:37.067Z,68.33
2018-06-01T11:42:05.324Z,81.70
2018-06-01T11:44:32.776Z,78.37
2018-06-01T11:47:00.666Z,74.67
2018-06-01T11:49:28.981Z,68.43
2018-06-01T11:51:56.624Z,61.50
2018-06-01T11:54:24.299Z,68.70
2018-06-01T11:56:51.778Z,55.87
2018-06-01T11:59:19.242Z,70.67
2018-06-01T12:01:46.807Z,86.17
2018-06-01T12:04:14.273Z,69.20
2018-06-01T12:06:42.010Z,77.87
2018-06-01T12:09:09.544Z,75.17
2018-06-01T12:11:37.035Z,95.27
2018-06-01T12:14:04.528Z,78.77
2018-06-01T12:16:32.060Z,89.07
2018-06-01T12:18:59.678Z,101.53
2018-06-01T12:21:27.912Z,56.30
2018-06-01T12:23:55.439Z,97.70
2018-06-01T12:26:22.911Z,81.13
2018-06-01T12:28:50.424Z,108.47
2018-06-01T12:31:18.660Z,101.53
2018-06-01T12:33:46.141Z,87.47
2018-06-01T12:36:13.620Z,93.77
2018-06-01T12:38:41.901Z,92.40
2018-06-01T12:41:10.168Z,101.80
2018-06-01T12:43:37.649Z,86.70
2018-06-01T12:46:05.901Z,63.40
2018-06-01T12:48:33.377Z,84.63
2018-06-01T12:51:01.661Z,81.70
2018-06-01T12:53:29.911Z,79.03
2018-06-01T12:55:57.383Z,63.43
2018-06-01T12:58:25.625Z,76.37
2018-06-01T13:00:53.917Z,70.30
2018-06-01T13:03:21.422Z,68.37
2018-06-01T13:05:48.974Z,64.83
2018-06-01T13:08:16.450Z,59.90
2018-06-01T13:10:45.377Z,59.03
2018-06-01T13:13:13.657Z,53.33
2018-06-01T13:15:41.149Z,59.70
2018-06-01T13:18:09.370Z,53.60
2018-06-01T13:20:36.914Z,50.27
2018-06-01T13:23:05.133Z,53.10
2018-06-01T13:25:32.708Z,53.33
2018-06-01T13:28:00.176Z,54.10
2018-06-01T13:30:27.675Z,47.30
2018-06-01T13:32:55.189Z,56.47
2018-06-01T13:35:23.499Z,51.37
2018-06-01T13:37:51.758Z,60.77
2018-06-01T13:40:21.073Z,49.97
2018-06-01T13:42:48.708Z,51.77
2018-06-01T13:45:16.958Z,47.80
2018-06-01T13:47:44.461Z,43.33
2018-06-01T13:50:12.737Z,43.20
2018-06-01T13:52:40.995Z,51.10
2018-06-01T13:55:09.228Z,47.83
2018-06-01T13:57:36.699Z,46.37
2018-06-01T14:00:04.188Z,47.20
2018-06-01T14:02:32.476Z,46.00
2018-06-01T14:05:00.740Z,46.23
2018-06-01T14:07:28.197Z,46.27
2018-06-01T14:09:56.518Z,45.00
2018-06-01T14:12:24.003Z,49.83
2018-06-01T14:14:51.500Z,50.73
2018-06-01T14:17:18.989Z,47.10
2018-06-01T14:19:46.761Z,44.63
2018-06-01T14:22:14.308Z,53.93
2018-06-01T14:24:41.890Z,45.40
2018-06-01T14:27:09.393Z,39.00
2018-06-01T14:29:36.905Z,42.13
2018-06-01T14:32:04.371Z,37.30
2018-06-01T14:34:31.885Z,40.83
2018-06-01T14:37:00.140Z,38.07
2018-06-01T14:39:27.886Z,34.67
2018-06-01T14:41:56.178Z,34.30
2018-06-01T14:44:23.809Z,34.57
2018-06-01T14:46:51.454Z,35.13
2018-06-01T14:49:18.856Z,34.50
2018-06-01T14:51:46.379Z,35.53
2018-06-01T14:54:14.680Z,35.53
2018-06-01T14:56:42.271Z,25.43
2018-06-01T14:59:09.824Z,30.30
2018-06-01T15:01:38.232Z,29.40
2018-06-01T15:04:05.759Z,28.63
2018-06-01T15:06:33.455Z,25.20
2018-06-01T15:09:05.136Z,30.13
2018-06-01T15:11:32.645Z,27.07
2018-06-01T15:14:00.135Z,22.63
2018-06-01T15:16:27.634Z,25.67
2018-06-01T15:18:55.212Z,20.73
2018-06-01T15:21:22.673Z,28.30
2018-06-01T15:23:50.160Z,26.33
2018-06-01T15:26:18.393Z,44.00
2018-06-01T15:28:46.655Z,32.20
2018-06-01T15:31:14.114Z,31.30
2018-06-01T15:33:41.576Z,32.47
2018-06-01T15:36:09.056Z,32.40
2018-06-01T15:38:36.537Z,33.00
2018-06-01T15:41:04.951Z,32.83
2018-06-01T15:43:32.270Z,26.60
2018-06-01T15:46:00.508Z,25.83
2018-06-01T15:48:28.004Z,21.90
2018-06-01T15:50:55.481Z,26.43
2018-06-01T15:53:22.956Z,34.93
2018-06-01T15:55:50.476Z,23.13
2018-06-01T15:58:17.937Z,28.00
2018-06-01T16:00:45.409Z,30.90
2018-06-01T16:03:13.876Z,25.23
2018-06-01T16:05:41.373Z,26.23
2018-06-01T16:08:08.851Z,24.70
2018-06-01T16:10:36.336Z,27.80
2018-06-01T16:13:03.809Z,24.37
2018-06-01T16:15:31.305Z,27.40
2018-06-01T16:17:58.804Z,25.93
2018-06-01T16:20:26.269Z,23.70
2018-06-01T16:22:54.500Z,29.43
2018-06-01T16:25:21.994Z,29.90
2018-06-01T16:27:49.496Z,27.97
2018-06-01T16:30:17.780Z,32.23
2018-06-01T16:32:46.025Z,31.77
2018-06-01T16:35:13.512Z,31.03
2018-06-01T16:37:41.772Z,35.43
2018-06-01T16:40:09.233Z,33.03
2018-06-01T16:42:36.694Z,40.13
2018-06-01T16:45:04.180Z,35.23
2018-06-01T16:47:31.645Z,38.90
2018-06-01T16:49:59.137Z,34.47
2018-06-01T16:52:26.613Z,40.67
2018-06-01T16:54:54.092Z,38.37
2018-06-01T16:57:22.346Z,37.57
2018-06-01T16:59:49.812Z,36.60
2018-06-01T17:02:17.302Z,34.63
2018-06-01T17:04:45.555Z,36.07
2018-06-01T17:07:13.017Z,33.50
2018-06-01T17:09:40.480Z,33.73
2018-06-01T17:12:07.953Z,35.10
2018-06-01T17:14:35.440Z,36.67
2018-06-01T17:17:02.904Z,35.93
2018-06-01T17:19:30.380Z,33.60
2018-06-01T17:21:57.868Z,35.97
2018-06-01T17:24:26.116Z,48.20
2018-06-01T17:26:53.596Z,34.43
2018-06-01T17:29:21.099Z,34.37
2018-06-01T17:31:48.594Z,34.77
2018-06-01T17:34:16.088Z,27.50
2018-06-01T17:36:44.312Z,41.00
2018-06-01T17:39:11.797Z,39.90
2018-06-01T17:41:39.260Z,38.67
2018-06-01T17:44:06.748Z,33.47
2018-06-01T17:46:34.266Z,37.53
2018-06-01T17:49:01.766Z,49.33
2018-06-01T17:51:29.993Z,45.87
2018-06-01T17:53:57.492Z,45.90
2018-06-01T17:56:25.724Z,42.57
2018-06-01T17:58:53.208Z,46.67
2018-06-01T18:01:20.673Z,46.13
2018-06-01T18:03:48.164Z,44.87
2018-06-01T18:06:15.633Z,45.80
2018-06-01T18:08:43.121Z,51.00
2018-06-01T18:11:10.588Z,48.00
2018-06-01T18:13:38.076Z,45.50
2018-06-01T18:16:05.552Z,55.90
2018-06-01T18:18:33.013Z,64.50
2018-06-01T18:21:00.582Z,60.07
2018-06-01T18:23:28.041Z,66.53
2018-06-01T18:25:55.517Z,59.73
2018-06-01T18:28:23.000Z,67.40
2018-06-01T18:30:50.488Z,77.60
2018-06-01T18:33:18.748Z,57.83
2018-06-01T18:35:46.214Z,67.77
2018-06-01T18:38:13.696Z,75.17
2018-06-01T18:40:41.193Z,75.80
2018-06-01T18:43:08.676Z,81.37
2018-06-01T18:45:36.144Z,91.63
2018-06-01T18:48:03.637Z,83.67
2018-06-01T18:50:31.096Z,87.53
2018-06-01T18:52:58.568Z,79.13
2018-06-01T18:55:26.049Z,72.50
2018-06-01T18:57:53.541Z,58.60
2018-06-01T19:00:21.004Z,63.70
2018-06-01T19:02:48.491Z,43.20
2018-06-01T19:05:15.976Z,54.90
2018-06-01T19:07:43.473Z,59.80
2018-06-01T19:10:10.933Z,47.07
2018-06-01T19:12:38.417Z,58.97
2018-06-01T19:15:06.652Z,54.70
2018-06-01T19:17:34.171Z,64.67
2018-06-01T19:20:02.413Z,56.37
2018-06-01T19:22:30.683Z,63.50
2018-06-01T19:24:58.141Z,63.17
2018-06-01T19:27:26.467Z,73.60
2018-06-01T19:29:53.937Z,61.30
2018-06-01T19:32:21.424Z,77.90
2018-06-01T19:34:48.887Z,67.53
2018-06-01T19:37:16.380Z,72.97
2018-06-01T19:39:43.839Z,69.83
2018-06-01T19:42:11.292Z,68.63
2018-06-01T19:44:38.781Z,65.40
2018-06-01T19:47:06.245Z,65.93
2018-06-01T19:49:33.787Z,73.87
2018-06-01T19:52:01.252Z,69.03
2018-06-01T19:54:29.598Z,68.23
2018-06-01T19:56:57.165Z,71.30
2018-06-01T19:59:25.418Z,71.93
2018-06-01T20:01:52.909Z,68.63
2018-06-01T20:04:20.374Z,56.47
2018-06-01T20:06:47.842Z,66.10
2018-06-01T20:09:15.331Z,66.57
2018-06-01T20:11:42.882Z,66.00
2018-06-01T20:14:11.191Z,62.50
2018-06-01T20:16:38.612Z,71.97
2018-06-01T20:19:06.161Z,74.37
2018-06-01T20:21:33.637Z,79.57
2018-06-01T20:24:01.129Z,70.37
2018-06-01T20:26:28.597Z,68.67
2018-06-01T20:28:56.093Z,70.33
2018-06-01T20:31:23.556Z,63.33
2018-06-01T20:33:51.064Z,77.10
2018-06-01T20:36:18.528Z,82.07
2018-06-01T20:38:46.760Z,86.20
2018-06-01T20:41:14.268Z,92.67
2018-06-01T20:43:42.508Z,96.43
2018-06-01T20:46:09.964Z,92.57
2018-06-01T20:48:37.443Z,81.90
2018-06-01T20:51:04.945Z,95.67
2018-06-01T20:53:32.415Z,94.13
2018-06-01T20:55:59.956Z,101.30
2018-06-01T20:58:27.430Z,91.67
2018-06-01T21:00:54.916Z,107.40
2018-06-01T21:03:22.386Z,92.23
2018-06-01T21:05:49.868Z,96.63
2018-06-01T21:08:18.125Z,105.33
2018-06-01T21:10:45.632Z,97.30
2018-06-01T21:13:13.132Z,98.50
2018-06-01T21:15:40.588Z,107.70
2018-06-01T21:18:08.070Z,100.30
2018-06-01T21:20:35.560Z,107.53
2018-06-01T21:23:03.029Z,102.00
2018-06-01T21:25:30.500Z,118.97
2018-06-01T21:27:57.997Z,100.77
2018-06-01T21:30:25.460Z,114.47
2018-06-01T21:32:52.950Z,130.00
2018-06-01T21:35:20.417Z,125.90
2018-06-01T21:37:47.908Z,145.00
2018-06-01T21:40:15.397Z,138.37
2018-06-01T21:42:42.864Z,142.43
2018-06-01T21:45:10.353Z,129.93
2018-06-01T21:47:37.835Z,134.60
2018-06-01T21:50:05.329Z,130.03
2018-06-01T21:52:32.816Z,155.00
2018-06-01T21:55:00.299Z,152.13
2018-06-01T21:57:27.768Z,141.77
2018-06-01T21:59:55.269Z,158.03
2018-06-01T22:02:22.741Z,169.67
2018-06-01T22:04:51.000Z,182.27
2018-06-01T22:07:18.484Z,179.50
2018-06-01T22:09:46.071Z,169.23
2018-06-01T22:12:13.543Z,167.80
2018-06-01T22:14:41.017Z,149.60
2018-06-01T22:17:08.503Z,163.07
2018-06-01T22:19:35.964Z,159.03
2018-06-01T22:22:03.475Z,150.73
2018-06-01T22:24:30.943Z,143.80
2018-06-01T22:26:58.411Z,111.37
2018-06-01T22:29:25.899Z,141.97
2018-06-01T22:31:54.152Z,112.90
2018-06-01T22:34:21.648Z,132.93
2018-06-01T22:36:49.885Z,123.23
2018-06-01T22:39:18.240Z,121.10
2018-06-01T22:41:45.733Z,88.83
2018-06-01T22:44:13.225Z,94.83
2018-06-01T22:46:40.689Z,99.17
2018-06-01T22:49:08.157Z,105.17
2018-06-01T22:51:35.636Z,86.13
2018-06-01T22:54:03.152Z,74.83
2018-06-01T22:56:31.389Z,78.63
2018-06-01T22:58:59.616Z,60.77
2018-06-01T23:01:27.092Z,62.70
2018-06-01T23:06:28.336Z,62.93
2018-06-01T23:08:55.924Z,67.43
2018-06-01T23:11:23.385Z,79.77
2018-06-01T23:13:50.884Z,76.03
2018-06-01T23:16:18.340Z,64.93
2018-06-01T23:18:45.826Z,79.60
2018-06-01T23:21:13.321Z,72.70
2018-06-01T23:23:40.783Z,69.77
2018-06-01T23:26:08.276Z,77.03
2018-06-01T23:28:35.741Z,69.83
2018-06-01T23:31:04.064Z,88.40
2018-06-01T23:33:31.594Z,83.03
2018-06-01T23:35:59.081Z,84.10
2018-06-01T23:38:26.577Z,71.23
2018-06-01T23:40:54.040Z,71.30
2018-06-01T23:43:21.533Z,75.93
2018-06-01T23:45:49.765Z,70.10
2018-06-01T23:48:17.264Z,77.00
2018-06-01T23:50:45.539Z,83.53
2018-06-01T23:53:13.780Z,76.37
2018-06-01T23:55:41.260Z,79.40
2018-06-01T23:58:08.748Z,79.23
